createdAt,value
2022-09-13T00:01:24.694Z,100156.47
2022-09-13T00:03:52.941Z,100157.50
2022-09-13T00:06:23.190Z,100150.41
2022-09-13T00:08:53.194Z,100141.28
2022-09-13T00:11:28.025Z,100142.94
2022-09-13T00:13:57.935Z,100134.13
2022-09-13T00:16:29.247Z,100131.41
2022-09-13T00:18:59.861Z,100122.59
2022-09-13T00:21:29.725Z,100118.63
2022-09-13T00:23:58.147Z,100121.06
2022-09-13T00:26:28.689Z,100122.69
2022-09-13T00:28:58.931Z,100125.03
2022-09-13T00:31:29.049Z,100119.09
2022-09-13T00:34:00.789Z,100117.47
2022-09-13T00:36:29.397Z,100107.84
2022-09-13T00:38:57.968Z,100112.75
2022-09-13T00:41:26.328Z,100106.75
2022-09-13T00:44:00.237Z,100094.97
2022-09-13T00:46:50.065Z,100083.00
2022-09-13T00:49:29.257Z,100085.84
2022-09-13T00:52:07.389Z,100088.03
2022-09-13T00:54:50.911Z,100080.06
2022-09-13T00:57:22.586Z,100075.28
2022-09-13T01:00:17.097Z,100070.56
2022-09-13T01:03:02.282Z,100080.72
2022-09-13T01:05:38.855Z,100071.97
2022-09-13T01:08:12.575Z,100064.38
2022-09-13T01:10:41.617Z,100070.97
2022-09-13T01:13:21.936Z,100067.06
2022-09-13T01:15:50.685Z,100069.56
2022-09-13T01:18:19.048Z,100060.69
2022-09-13T01:21:46.445Z,100061.84
2022-09-13T01:25:03.602Z,100057.19
2022-09-13T01:28:03.033Z,100058.94
2022-09-13T01:30:44.432Z,100063.06
2022-09-13T01:33:47.001Z,100058.28
2022-09-13T01:36:32.671Z,100062.44
2022-09-13T01:39:12.152Z,100073.06
2022-09-13T01:42:00.182Z,100063.88
2022-09-13T01:44:55.932Z,100060.63
2022-09-13T01:47:56.620Z,100068.19
2022-09-13T01:51:03.383Z,100068.91
2022-09-13T01:53:46.140Z,100069.00
2022-09-13T01:56:30.046Z,100075.44
2022-09-13T01:59:15.242Z,100082.66
2022-09-13T02:02:13.195Z,100083.84
2022-09-13T02:04:50.936Z,100082.63
2022-09-13T02:07:31.136Z,100086.59
2022-09-13T02:10:11.958Z,100082.50
2022-09-13T02:12:44.216Z,100077.44
2022-09-13T02:15:29.805Z,100068.31
2022-09-13T02:18:11.105Z,100054.16
2022-09-13T02:20:49.140Z,100053.63
2022-09-13T02:23:39.106Z,100064.41
2022-09-13T02:26:09.515Z,100054.53
2022-09-13T02:28:45.040Z,100042.09
2022-09-13T02:31:22.148Z,100050.88
2022-09-13T02:33:58.794Z,100051.72
2022-09-13T02:36:36.192Z,100049.53
2022-09-13T02:39:12.178Z,100036.09
2022-09-13T02:42:12.315Z,100055.31
2022-09-13T02:44:49.854Z,100050.88
2022-09-13T02:47:35.824Z,100063.66
2022-09-13T02:50:44.028Z,100052.81
2022-09-13T02:53:55.902Z,100058.00
2022-09-13T02:56:53.107Z,100053.94
2022-09-13T02:59:24.149Z,100058.72
2022-09-13T03:02:05.944Z,100054.75
2022-09-13T03:04:34.851Z,100059.78
2022-09-13T03:07:07.647Z,100063.75
2022-09-13T03:09:35.976Z,100067.28
2022-09-13T03:13:04.668Z,100066.84
2022-09-13T03:16:15.405Z,100055.50
2022-09-13T03:19:01.676Z,100046.13
2022-09-13T03:21:48.498Z,100062.22
2022-09-13T03:24:49.671Z,100042.03
2022-09-13T03:28:01.900Z,100035.47
2022-09-13T03:30:32.855Z,100030.00
2022-09-13T03:33:10.602Z,100028.25
2022-09-13T03:35:46.128Z,100025.56
2022-09-13T03:38:27.529Z,100023.63
2022-09-13T03:41:09.810Z,100031.66
2022-09-13T03:43:57.891Z,100025.56
2022-09-13T03:46:32.444Z,100023.16
2022-09-13T03:49:09.284Z,100032.94
2022-09-13T03:51:38.032Z,100037.69
2022-09-13T03:54:12.258Z,100039.59
2022-09-13T03:56:41.028Z,100034.53
2022-09-13T03:59:09.204Z,100040.28
2022-09-13T04:01:37.370Z,100036.34
2022-09-13T04:04:05.599Z,100030.75
2022-09-13T04:06:33.867Z,100035.19
2022-09-13T04:09:02.019Z,100034.81
2022-09-13T04:11:31.261Z,100028.38
2022-09-13T04:13:59.513Z,100033.56
2022-09-13T04:16:27.797Z,100033.19
2022-09-13T04:18:55.984Z,100032.38
2022-09-13T04:21:24.352Z,100025.16
2022-09-13T04:23:52.639Z,100027.91
2022-09-13T04:26:20.852Z,100025.91
2022-09-13T04:28:49.150Z,100017.47
2022-09-13T04:31:17.474Z,100029.09
2022-09-13T04:33:46.026Z,100031.13
2022-09-13T04:36:14.332Z,100020.44
2022-09-13T04:38:42.708Z,100025.94
2022-09-13T04:41:11.652Z,100032.34
2022-09-13T04:43:39.831Z,100023.66
2022-09-13T04:46:08.015Z,100027.72
2022-09-13T04:48:36.230Z,100029.38
2022-09-13T04:51:05.172Z,100032.22
2022-09-13T04:53:33.758Z,100036.25
2022-09-13T04:56:04.101Z,100033.31
2022-09-13T04:58:32.943Z,100030.97
2022-09-13T05:01:07.387Z,100032.16
2022-09-13T05:03:36.215Z,100032.69
2022-09-13T05:06:15.426Z,100033.50
2022-09-13T05:08:44.065Z,100033.13
2022-09-13T05:11:12.246Z,100029.94
2022-09-13T05:13:40.580Z,100035.13
2022-09-13T05:16:09.021Z,100038.69
2022-09-13T05:18:40.950Z,100038.28
2022-09-13T05:21:12.737Z,100042.41
2022-09-13T05:23:42.304Z,100046.34
2022-09-13T05:26:10.760Z,100044.66
2022-09-13T05:28:39.010Z,100039.13
2022-09-13T05:31:26.660Z,100041.91
2022-09-13T05:34:03.286Z,100043.69
2022-09-13T05:36:31.759Z,100047.78
2022-09-13T05:39:28.483Z,100051.44
2022-09-13T05:41:49.291Z,100054.66
2022-09-13T05:44:17.592Z,100044.84
2022-09-13T05:46:48.870Z,100047.44
2022-09-13T05:49:17.312Z,100045.91
2022-09-13T05:51:45.506Z,100047.97
2022-09-13T05:54:14.021Z,100056.06
2022-09-13T05:56:42.186Z,100052.84
2022-09-13T05:59:14.474Z,100053.13
2022-09-13T06:01:42.925Z,100057.66
2022-09-13T06:04:12.598Z,100045.50
2022-09-13T06:06:41.187Z,100037.44
2022-09-13T06:09:11.821Z,100043.31
2022-09-13T06:11:40.177Z,100043.81
2022-09-13T06:14:08.348Z,100045.94
2022-09-13T06:16:36.943Z,100047.03
2022-09-13T06:19:05.245Z,100052.19
2022-09-13T06:21:33.499Z,100058.47
2022-09-13T06:24:01.873Z,100054.91
2022-09-13T06:26:30.051Z,100050.31
2022-09-13T06:28:59.362Z,100054.38
2022-09-13T06:31:29.157Z,100052.63
2022-09-13T06:34:02.203Z,100043.56
2022-09-13T06:36:33.336Z,100052.19
2022-09-13T06:39:02.108Z,100051.59
2022-09-13T06:41:30.320Z,100052.22
2022-09-13T06:44:01.444Z,100048.69
2022-09-13T06:46:34.146Z,100052.34
2022-09-13T06:49:06.592Z,100049.38
2022-09-13T06:51:36.260Z,100055.09
2022-09-13T06:54:05.623Z,100062.41
2022-09-13T06:56:37.830Z,100064.38
2022-09-13T06:59:08.686Z,100062.06
2022-09-13T07:01:40.031Z,100071.28
2022-09-13T07:04:12.726Z,100067.84
2022-09-13T07:06:45.224Z,100060.13
2022-09-13T07:09:18.353Z,100070.50
2022-09-13T07:11:48.390Z,100068.97
2022-09-13T07:14:22.285Z,100065.56
2022-09-13T07:16:51.707Z,100062.59
2022-09-13T07:19:26.474Z,100069.41
2022-09-13T07:21:56.350Z,100072.97
2022-09-13T07:24:25.406Z,100060.25
2022-09-13T07:26:53.926Z,100057.34
2022-09-13T07:29:26.238Z,100071.59
2022-09-13T07:31:56.611Z,100066.00
2022-09-13T07:34:26.531Z,100070.81
2022-09-13T07:36:55.225Z,100070.81
2022-09-13T07:39:24.184Z,100063.56
2022-09-13T07:41:53.789Z,100078.06
2022-09-13T07:44:22.886Z,100084.75
2022-09-13T07:46:51.216Z,100080.31
2022-09-13T07:49:19.708Z,100074.09
2022-09-13T07:51:51.661Z,100083.00
2022-09-13T07:54:20.547Z,100078.38
2022-09-13T07:56:50.281Z,100091.03
2022-09-13T07:59:19.524Z,100087.72
2022-09-13T08:01:51.070Z,100081.38
2022-09-13T08:04:25.176Z,100080.47
2022-09-13T08:06:53.480Z,100083.78
2022-09-13T08:09:21.658Z,100087.94
2022-09-13T08:11:54.896Z,100093.25
2022-09-13T08:14:24.118Z,100094.03
2022-09-13T08:16:56.794Z,100094.41
2022-09-13T08:19:25.236Z,100095.19
2022-09-13T08:21:53.429Z,100094.50
2022-09-13T08:24:22.424Z,100096.09
2022-09-13T08:26:51.954Z,100095.69
2022-09-13T08:29:20.475Z,100089.75
2022-09-13T08:31:48.700Z,100094.50
2022-09-13T08:34:18.186Z,100096.88
2022-09-13T08:36:46.543Z,100099.75
2022-09-13T08:39:15.361Z,100100.94
2022-09-13T08:41:56.026Z,100105.78
2022-09-13T08:44:40.367Z,100097.81
2022-09-13T08:47:33.330Z,100105.88
2022-09-13T08:50:24.036Z,100098.63
2022-09-13T08:53:30.933Z,100100.94
2022-09-13T08:56:48.056Z,100104.59
2022-09-13T08:59:56.055Z,100102.69
2022-09-13T09:02:59.689Z,100097.81
2022-09-13T09:05:33.039Z,100093.00
2022-09-13T09:08:03.426Z,100099.88
2022-09-13T09:10:48.852Z,100105.09
2022-09-13T09:13:38.692Z,100109.91
2022-09-13T09:16:48.680Z,100103.47
2022-09-13T09:19:30.968Z,100103.47
2022-09-13T09:21:59.869Z,100100.66
2022-09-13T09:24:28.047Z,100102.69
2022-09-13T09:26:58.176Z,100101.03
2022-09-13T09:29:36.799Z,100107.88
2022-09-13T09:33:44.368Z,100113.94
2022-09-13T09:36:40.492Z,100119.59
2022-09-13T09:39:16.097Z,100122.41
2022-09-13T09:41:45.304Z,100115.56
2022-09-13T09:44:18.013Z,100119.59
2022-09-13T09:46:55.737Z,100115.09
2022-09-13T09:49:58.183Z,100117.19
2022-09-13T09:52:44.544Z,100110.72
2022-09-13T09:55:30.277Z,100116.31
2022-09-13T09:58:10.017Z,100113.94
2022-09-13T10:00:57.446Z,100114.75
2022-09-13T10:03:32.099Z,100117.94
2022-09-13T10:06:13.111Z,100117.94
2022-09-13T10:08:56.201Z,100119.56
2022-09-13T10:11:27.346Z,100114.75
2022-09-13T10:14:03.614Z,100106.63
2022-09-13T10:16:32.135Z,100114.75
2022-09-13T10:19:26.188Z,100110.72
2022-09-13T10:22:08.984Z,100113.13
2022-09-13T10:25:27.164Z,100102.63
2022-09-13T10:28:00.375Z,100101.81
2022-09-13T10:30:46.863Z,100107.50
2022-09-13T10:33:30.140Z,100110.19
2022-09-13T10:36:53.329Z,100103.31
2022-09-13T10:39:24.473Z,100102.56
2022-09-13T10:41:59.280Z,100114.72
2022-09-13T10:44:43.745Z,100109.81
2022-09-13T10:47:24.368Z,100098.53
2022-09-13T10:50:31.373Z,100103.47
2022-09-13T10:53:01.064Z,100102.97
2022-09-13T10:55:40.697Z,100103.88
2022-09-13T10:58:09.805Z,100103.88
2022-09-13T11:01:05.304Z,100102.66
2022-09-13T11:04:20.038Z,100102.63
2022-09-13T11:07:30.331Z,100095.38
2022-09-13T11:10:35.526Z,100095.25
2022-09-13T11:13:30.069Z,100089.50
2022-09-13T11:16:29.564Z,100083.13
2022-09-13T11:19:36.819Z,100083.81
2022-09-13T11:22:31.346Z,100089.28
2022-09-13T11:25:27.842Z,100082.97
2022-09-13T11:28:46.169Z,100089.09
2022-09-13T11:31:38.803Z,100103.31
2022-09-13T11:35:02.293Z,100100.94
2022-09-13T11:38:17.796Z,100098.50
2022-09-13T11:41:13.964Z,100112.66
2022-09-13T11:44:20.452Z,100104.53
2022-09-13T11:46:52.066Z,100102.78
2022-09-13T11:50:03.990Z,100103.19
2022-09-13T11:53:17.602Z,100100.03
2022-09-13T11:55:53.725Z,100094.19
2022-09-13T11:59:16.217Z,100091.38
2022-09-13T12:01:55.865Z,100085.19
2022-09-13T12:04:39.529Z,100085.97
2022-09-13T12:07:24.928Z,100085.75
2022-09-13T12:10:14.034Z,100078.31
2022-09-13T12:12:42.523Z,100077.38
2022-09-13T12:15:42.955Z,100078.72
2022-09-13T12:18:27.501Z,100081.25
2022-09-13T12:21:10.431Z,100068.88
2022-09-13T12:23:50.471Z,100062.38
2022-09-13T12:26:30.729Z,100062.38
2022-09-13T12:29:07.743Z,100042.78
2022-09-13T12:31:36.051Z,100040.03
2022-09-13T12:34:10.463Z,100035.31
2022-09-13T12:37:31.520Z,100038.63
2022-09-13T12:40:33.540Z,100035.22
2022-09-13T12:43:23.343Z,100027.13
2022-09-13T12:46:23.234Z,100024.31
2022-09-13T12:49:26.207Z,100022.28
2022-09-13T12:52:54.777Z,100023.78
2022-09-13T12:55:49.544Z,100029.44
2022-09-13T12:58:39.137Z,100034.94
2022-09-13T13:01:22.289Z,100026.66
2022-09-13T13:04:08.953Z,100028.38
2022-09-13T13:06:51.337Z,100024.78
2022-09-13T13:09:48.189Z,100015.47
2022-09-13T13:12:38.831Z,100021.09
2022-09-13T13:15:20.525Z,100015.59
2022-09-13T13:17:53.709Z,100028.59
2022-09-13T13:20:52.108Z,100014.56
2022-09-13T13:23:46.172Z,100008.41
2022-09-13T13:26:50.434Z,100017.84
2022-09-13T13:29:32.088Z,100007.78
2022-09-13T13:32:04.201Z,100014.38
2022-09-13T13:34:45.708Z,100013.25
2022-09-13T13:37:18.471Z,100011.00
2022-09-13T13:40:21.795Z,100006.00
2022-09-13T13:42:50.852Z,100018.66
2022-09-13T13:45:28.050Z,100016.75
2022-09-13T13:48:12.206Z,100022.16
2022-09-13T13:51:16.712Z,100006.75
2022-09-13T13:53:52.590Z,100012.28
2022-09-13T13:56:54.531Z,100003.03
2022-09-13T13:59:33.464Z,99997.75
2022-09-13T14:02:02.144Z,99998.34
2022-09-13T14:05:17.654Z,99999.41
2022-09-13T14:08:26.190Z,99998.97
2022-09-13T14:11:02.661Z,100003.19
2022-09-13T14:13:55.271Z,100003.22
2022-09-13T14:17:14.000Z,68092.72
2022-09-13T14:19:48.113Z,68092.72
2022-09-13T14:22:24.288Z,68092.72
2022-09-13T14:24:59.056Z,68092.72
2022-09-13T14:27:37.647Z,100003.22
2022-09-13T14:30:21.835Z,100000.19
2022-09-13T14:32:57.081Z,68092.72
2022-09-13T14:35:39.632Z,100000.19
2022-09-13T14:38:23.392Z,99993.56
2022-09-13T14:41:01.815Z,99990.63
2022-09-13T14:43:32.252Z,68092.72
2022-09-13T14:46:07.575Z,68092.72
2022-09-13T14:48:40.048Z,68092.72
2022-09-13T14:51:30.134Z,68092.72
2022-09-13T14:54:26.461Z,68092.72
2022-09-13T14:56:59.811Z,68092.72
2022-09-13T14:59:43.479Z,99982.41
2022-09-13T15:02:30.315Z,68092.72
2022-09-13T15:05:00.683Z,99982.41
2022-09-13T15:07:34.932Z,99985.59
2022-09-13T15:10:17.859Z,99992.84
2022-09-13T15:12:58.009Z,99992.84
2022-09-13T15:15:42.208Z,99977.69
2022-09-13T15:18:19.964Z,99985.28
2022-09-13T15:21:07.123Z,68092.72
2022-09-13T15:23:43.070Z,99985.28
2022-09-13T15:26:23.820Z,68092.72
2022-09-13T15:28:59.064Z,99985.28
2022-09-13T15:31:34.232Z,68092.72
2022-09-13T15:34:17.553Z,68092.72
2022-09-13T15:36:47.528Z,68092.72
2022-09-13T15:39:20.063Z,99985.28
2022-09-13T15:41:53.293Z,68092.72
2022-09-13T15:44:22.446Z,99991.25
2022-09-13T15:46:57.693Z,68092.72
2022-09-13T15:49:28.603Z,68092.72
2022-09-13T15:52:01.572Z,68092.72
2022-09-13T15:54:50.994Z,68092.72
2022-09-13T15:57:27.564Z,68092.72
2022-09-13T16:00:01.517Z,68092.72
2022-09-13T16:02:37.899Z,68092.72
2022-09-13T16:05:08.438Z,68092.72
2022-09-13T16:07:36.666Z,68092.72
2022-09-13T16:10:15.972Z,99991.25
2022-09-13T16:12:44.687Z,68092.72
2022-09-13T16:15:13.010Z,68092.72
2022-09-13T16:17:41.838Z,68092.72
2022-09-13T16:20:14.774Z,99987.66
2022-09-13T16:22:43.259Z,99987.66
2022-09-13T16:25:14.571Z,99986.91
2022-09-13T16:27:44.744Z,68092.72
2022-09-13T16:30:19.838Z,99989.56
2022-09-13T16:32:48.583Z,99992.34
2022-09-13T16:35:17.044Z,99996.63
2022-09-13T16:37:51.803Z,99993.63
2022-09-13T16:40:20.038Z,99993.88
2022-09-13T16:42:48.417Z,99986.56
2022-09-13T16:45:16.895Z,99987.91
2022-09-13T16:47:45.135Z,99984.78
2022-09-13T16:50:13.456Z,99980.22
2022-09-13T16:52:41.629Z,99978.25
2022-09-13T16:55:10.172Z,99983.38
2022-09-13T16:57:38.570Z,99979.06
2022-09-13T17:00:10.170Z,99979.47
2022-09-13T17:02:38.922Z,99974.59
2022-09-13T17:05:08.415Z,99979.88
2022-09-13T17:07:37.058Z,99980.69
2022-09-13T17:10:09.343Z,99977.69
2022-09-13T17:12:38.697Z,99983.44
2022-09-13T17:15:08.001Z,99994.91
2022-09-13T17:17:36.422Z,99998.72
2022-09-13T17:20:10.101Z,100002.38
2022-09-13T17:22:38.822Z,100008.94
2022-09-13T17:25:07.921Z,100005.38
2022-09-13T17:27:36.468Z,100000.97
2022-09-13T17:30:05.518Z,100005.09
2022-09-13T17:32:33.950Z,100007.63
2022-09-13T17:35:02.108Z,100012.16
2022-09-13T17:37:30.330Z,100018.31
2022-09-13T17:39:58.628Z,100023.72
2022-09-13T17:42:27.181Z,100024.13
2022-09-13T17:44:55.371Z,100030.56
2022-09-13T17:47:23.584Z,100027.16
2022-09-13T17:49:51.800Z,100020.34
2022-09-13T17:52:20.106Z,100019.53
2022-09-13T17:54:50.117Z,100018.75
2022-09-13T17:57:18.287Z,100032.47
2022-09-13T17:59:47.269Z,100035.84
2022-09-13T18:02:15.518Z,100040.63
2022-09-13T18:04:43.757Z,100034.22
2022-09-13T18:07:12.555Z,100037.88
2022-09-13T18:09:41.317Z,100046.31
2022-09-13T18:12:10.028Z,100043.13
2022-09-13T18:14:38.741Z,100042.72
2022-09-13T18:17:13.026Z,100036.72
2022-09-13T18:19:46.746Z,100039.09
2022-09-13T18:22:15.680Z,100037.50
2022-09-13T18:24:46.644Z,100032.31
2022-09-13T18:27:14.959Z,100035.88
2022-09-13T18:29:43.171Z,100038.31
2022-09-13T18:32:11.630Z,100039.13
2022-09-13T18:34:42.047Z,100040.31
2022-09-13T18:37:10.300Z,100040.72
2022-09-13T18:39:38.809Z,100036.28
2022-09-13T18:42:07.232Z,100035.84
2022-09-13T18:44:35.576Z,100039.81
2022-09-13T18:47:05.143Z,100051.88
2022-09-13T18:49:33.352Z,100048.25
2022-09-13T18:52:01.652Z,100063.88
2022-09-13T18:54:29.844Z,100069.88
2022-09-13T18:57:00.422Z,100067.72
2022-09-13T18:59:30.223Z,100066.13
2022-09-13T19:01:58.674Z,100068.84
2022-09-13T19:04:27.006Z,100063.59
2022-09-13T19:06:58.447Z,100074.03
2022-09-13T19:09:26.831Z,100074.41
2022-09-13T19:11:55.142Z,100069.97
2022-09-13T19:14:27.727Z,100076.31
2022-09-13T19:17:03.028Z,100077.94
2022-09-13T19:19:31.844Z,100074.69
2022-09-13T19:22:00.061Z,100074.28
2022-09-13T19:24:28.586Z,100073.06
2022-09-13T19:26:56.857Z,100072.59
2022-09-13T19:29:25.134Z,100078.56
2022-09-13T19:31:55.653Z,100075.66
2022-09-13T19:34:24.213Z,100071.22
2022-09-13T19:36:57.325Z,100080.00
2022-09-13T19:39:29.706Z,100072.75
2022-09-13T19:42:00.623Z,100066.69
2022-09-13T19:44:29.069Z,100068.69
2022-09-13T19:47:40.092Z,100075.09
2022-09-13T19:49:45.781Z,100075.03
2022-09-13T19:52:14.146Z,100070.56
2022-09-13T19:54:42.431Z,100070.50
2022-09-13T19:57:10.688Z,100066.06
2022-09-13T19:59:38.948Z,100070.84
2022-09-13T20:02:10.669Z,100078.00
2022-09-13T20:04:38.886Z,100081.94
2022-09-13T20:07:11.908Z,100076.28
2022-09-13T20:09:42.101Z,100070.63
2022-09-13T20:12:11.444Z,100083.75
2022-09-13T20:14:39.674Z,100076.78
2022-09-13T20:17:15.838Z,100072.41
2022-09-13T20:19:49.678Z,100072.63
2022-09-13T20:22:18.457Z,100075.28
2022-09-13T20:24:46.667Z,100078.84
2022-09-13T20:27:15.604Z,100075.69
2022-09-13T20:29:43.764Z,100074.09
2022-09-13T20:32:11.969Z,100073.22
2022-09-13T20:34:40.322Z,100075.56
2022-09-13T20:37:12.988Z,100080.72
2022-09-13T20:39:41.212Z,100073.06
2022-09-13T20:42:09.937Z,100076.63
2022-09-13T20:44:40.248Z,100071.41
2022-09-13T20:47:09.101Z,100079.28
2022-09-13T20:49:37.251Z,100078.03
2022-09-13T20:52:05.580Z,100070.72
2022-09-13T20:54:33.765Z,100078.25
2022-09-13T20:57:01.946Z,100067.78
2022-09-13T20:59:30.155Z,100066.47
2022-09-13T21:01:58.674Z,100065.25
2022-09-13T21:04:26.948Z,100064.22
2022-09-13T21:07:14.980Z,100059.50
2022-09-13T21:09:43.792Z,100061.44
2022-09-13T21:12:11.997Z,100060.13
2022-09-13T21:14:39.775Z,100053.69
2022-09-13T21:17:08.426Z,100049.56
2022-09-13T21:19:36.720Z,100053.16
2022-09-13T21:22:04.985Z,100053.06
2022-09-13T21:24:33.150Z,100050.97
2022-09-13T21:27:01.390Z,100058.50
2022-09-13T21:29:29.573Z,100068.28
2022-09-13T21:31:57.742Z,100065.72
2022-09-13T21:34:27.277Z,100056.94
2022-09-13T21:36:56.882Z,100074.53
2022-09-13T21:39:24.791Z,100075.19
2022-09-13T21:41:53.238Z,100067.72
2022-09-13T21:44:21.453Z,100065.50
2022-09-13T21:46:51.366Z,100058.16
2022-09-13T21:49:19.144Z,100068.13
2022-09-13T21:51:49.659Z,100071.59
2022-09-13T21:54:19.815Z,100059.94
2022-09-13T21:56:53.934Z,100057.06
2022-09-13T21:59:23.449Z,100066.56
2022-09-13T22:01:52.811Z,100066.84
2022-09-13T22:04:25.468Z,100056.78
2022-09-13T22:06:54.212Z,100058.34
2022-09-13T22:09:26.945Z,100061.44
2022-09-13T22:11:56.312Z,100062.16
2022-09-13T22:14:24.700Z,100057.31
2022-09-13T22:16:57.209Z,100056.44
2022-09-13T22:19:26.964Z,100058.69
2022-09-13T22:21:59.206Z,100063.50
2022-09-13T22:24:31.927Z,100051.84
2022-09-13T22:27:00.905Z,100057.75
2022-09-13T22:29:29.177Z,100048.44
2022-09-13T22:31:58.102Z,100041.44
2022-09-13T22:34:30.679Z,100040.03
2022-09-13T22:37:00.239Z,100039.22
2022-09-13T22:39:28.106Z,100032.03
2022-09-13T22:41:56.439Z,100036.72
2022-09-13T22:44:24.855Z,100038.28
2022-09-13T22:46:53.199Z,100034.19
2022-09-13T22:49:21.405Z,100035.28
2022-09-13T22:51:49.809Z,100034.06
2022-09-13T22:54:19.387Z,100032.00
2022-09-13T22:56:47.966Z,100030.72
2022-09-13T22:59:21.942Z,100033.28
2022-09-13T23:01:50.519Z,100032.94
2022-09-13T23:04:18.869Z,100031.66
2022-09-13T23:06:47.244Z,100035.22
2022-09-13T23:09:18.526Z,100030.34
2022-09-13T23:11:47.470Z,100030.72
2022-09-13T23:14:17.609Z,100034.03
2022-09-13T23:16:51.625Z,100034.03
2022-09-13T23:19:22.463Z,100021.47
2022-09-13T23:21:53.633Z,100010.03
2022-09-13T23:24:21.723Z,100013.28
2022-09-13T23:26:50.787Z,100013.13
2022-09-13T23:29:20.293Z,100007.47
2022-09-13T23:31:49.573Z,100008.03
2022-09-13T23:34:18.001Z,100002.53
2022-09-13T23:36:46.495Z,100011.59
2022-09-13T23:39:18.451Z,100007.09
2022-09-13T23:41:48.841Z,100014.22
2022-09-13T23:44:17.698Z,100011.81
2022-09-13T23:46:46.302Z,100005.22
2022-09-13T23:49:15.043Z,100008.28
2022-09-13T23:51:43.832Z,100004.88
2022-09-13T23:54:13.581Z,100007.22
2022-09-13T23:56:41.960Z,100008.38
2022-09-13T23:59:12.314Z,100003.06
